createdAt,value
2022-11-16T00:02:05.206Z,96.55
2022-11-16T00:05:09.071Z,96.09
2022-11-16T00:08:13.096Z,96.40
2022-11-16T00:11:17.101Z,96.25
2022-11-16T00:14:21.541Z,95.64
2022-11-16T00:17:27.214Z,95.00
2022-11-16T00:20:31.114Z,94.60
2022-11-16T00:23:35.185Z,94.03
2022-11-16T00:26:39.352Z,92.93
2022-11-16T00:29:43.521Z,92.08
2022-11-16T00:32:47.632Z,89.67
2022-11-16T00:35:52.111Z,91.03
2022-11-16T00:38:56.098Z,89.83
2022-11-16T00:42:00.499Z,85.92
2022-11-16T00:45:04.583Z,84.75
2022-11-16T00:48:08.464Z,84.10
2022-11-16T00:51:13.058Z,84.50
2022-11-16T00:54:17.055Z,83.13
2022-11-16T00:57:21.305Z,83.20
2022-11-16T01:00:25.515Z,82.15
2022-11-16T01:03:29.705Z,81.46
2022-11-16T01:10:01.989Z,81.96
2022-11-16T01:13:06.134Z,80.68
2022-11-16T01:16:09.909Z,79.39
2022-11-16T01:19:14.373Z,81.05
2022-11-16T01:22:18.436Z,81.52
2022-11-16T01:25:22.465Z,80.91
2022-11-16T01:28:26.585Z,81.57
2022-11-16T01:31:31.037Z,80.68
2022-11-16T01:34:35.369Z,80.72
2022-11-16T02:15:54.240Z,81.25
2022-11-16T02:18:58.237Z,81.47
2022-11-16T02:22:05.645Z,81.52
2022-11-16T02:25:09.517Z,81.23
2022-11-16T02:28:13.638Z,80.84
2022-11-16T02:31:18.068Z,81.52
2022-11-16T02:34:21.905Z,80.65
2022-11-16T02:37:25.660Z,81.56
2022-11-16T02:40:29.855Z,80.94
2022-11-16T02:43:33.846Z,80.50
2022-11-16T02:46:37.669Z,80.19
2022-11-16T02:49:41.353Z,79.88
2022-11-16T02:52:45.125Z,78.27
2022-11-16T02:55:49.547Z,77.79
2022-11-16T02:58:55.365Z,78.87
2022-11-16T03:01:59.357Z,78.23
2022-11-16T03:05:03.464Z,80.39
2022-11-16T03:56:43.943Z,79.20
2022-11-16T04:03:10.440Z,78.53
2022-11-16T04:06:14.521Z,78.21
2022-11-16T04:09:18.782Z,77.91
2022-11-16T04:12:24.061Z,78.47
2022-11-16T04:15:28.350Z,81.65
2022-11-16T04:18:32.556Z,79.94
2022-11-16T04:21:36.682Z,79.50
2022-11-16T04:24:40.794Z,80.59
2022-11-16T04:27:44.996Z,79.82
2022-11-16T04:30:49.449Z,79.05
2022-11-16T04:33:57.090Z,78.59
2022-11-16T04:37:01.058Z,76.91
2022-11-16T04:40:04.907Z,78.43
2022-11-16T04:43:09.185Z,78.58
2022-11-16T04:46:15.842Z,78.35
2022-11-16T05:03:13.907Z,80.48
2022-11-16T05:06:18.034Z,79.92
2022-11-16T05:09:22.050Z,78.09
2022-11-16T05:12:25.953Z,78.40
2022-11-16T05:15:29.838Z,78.66
2022-11-16T05:18:34.045Z,77.16
2022-11-16T05:21:38.374Z,80.13
2022-11-16T05:24:42.716Z,79.06
2022-11-16T05:27:46.473Z,78.61
2022-11-16T05:30:50.600Z,79.06
2022-11-16T05:37:22.997Z,79.36
2022-11-16T05:40:26.893Z,80.04
2022-11-16T05:43:30.882Z,78.75
2022-11-16T05:46:34.891Z,78.53
2022-11-16T05:49:38.815Z,78.33
2022-11-16T05:52:42.846Z,76.80
2022-11-16T05:55:46.866Z,78.18
2022-11-16T05:58:52.154Z,77.11
2022-11-16T06:01:56.249Z,77.80
2022-11-16T06:05:00.035Z,77.70
2022-11-16T06:08:03.816Z,78.52
2022-11-16T06:11:08.699Z,76.63
2022-11-16T06:14:12.474Z,77.46
2022-11-16T06:32:10.678Z,76.52
2022-11-16T06:35:14.826Z,77.04
2022-11-16T06:38:20.581Z,76.19
2022-11-16T06:41:25.392Z,77.37
2022-11-16T06:48:10.933Z,75.88
2022-11-16T06:58:24.671Z,75.88
2022-11-16T07:11:58.492Z,75.23
2022-11-16T07:15:02.431Z,75.52
2022-11-16T07:18:06.477Z,75.36
2022-11-16T07:21:10.852Z,75.56
2022-11-16T07:24:17.321Z,75.87
2022-11-16T07:27:21.425Z,75.30
2022-11-16T07:30:25.328Z,75.18
2022-11-16T07:33:29.170Z,76.60
2022-11-16T07:36:33.200Z,77.27
2022-11-16T07:39:37.439Z,74.37
2022-11-16T07:42:41.368Z,73.96
2022-11-16T07:45:51.343Z,74.70
2022-11-16T07:48:57.452Z,73.90
2022-11-16T07:52:02.624Z,73.69
2022-11-16T07:55:06.602Z,75.44
2022-11-16T07:58:10.980Z,72.69
2022-11-16T08:01:16.525Z,71.57
2022-11-16T08:04:22.029Z,71.68
2022-11-16T08:07:33.297Z,72.05
2022-11-16T08:10:38.108Z,71.05
2022-11-16T08:13:42.600Z,69.70
2022-11-16T08:16:48.417Z,69.30
2022-11-16T08:19:56.041Z,68.02
2022-11-16T08:23:03.511Z,69.08
2022-11-16T08:26:09.811Z,68.25
2022-11-16T08:29:14.066Z,69.92
2022-11-16T08:35:48.460Z,70.38
2022-11-16T08:38:55.401Z,70.78
2022-11-16T08:42:00.142Z,69.07
2022-11-16T08:45:04.736Z,69.54
2022-11-16T08:48:10.905Z,69.56
2022-11-16T08:51:25.375Z,69.63
2022-11-16T08:54:39.447Z,69.31
2022-11-16T08:57:47.000Z,66.41
2022-11-16T09:00:51.556Z,69.15
2022-11-16T09:04:01.479Z,66.10
2022-11-16T09:07:06.928Z,69.83
2022-11-16T09:10:17.539Z,72.34
2022-11-16T09:13:22.685Z,70.46
2022-11-16T09:16:29.615Z,68.41
2022-11-16T09:19:33.897Z,67.52
2022-11-16T09:22:39.787Z,66.65
2022-11-16T09:25:45.413Z,66.10
2022-11-16T09:28:55.615Z,65.46
2022-11-16T09:32:17.666Z,66.13
2022-11-16T09:59:17.851Z,70.02
2022-11-16T10:09:32.800Z,66.07
2022-11-16T10:13:01.582Z,66.37
2022-11-16T10:30:02.431Z,65.00
2022-11-16T10:46:48.684Z,64.87
2022-11-16T11:10:57.026Z,65.24
2022-11-16T11:16:49.566Z,64.17
2022-11-16T11:19:53.539Z,65.97
2022-11-16T11:22:57.360Z,63.79
2022-11-16T11:26:01.328Z,64.24
2022-11-16T11:29:05.544Z,63.28
2022-11-16T11:32:09.652Z,63.91
2022-11-16T11:35:13.682Z,64.33
2022-11-16T11:38:17.675Z,64.01
2022-11-16T11:41:21.681Z,63.55
2022-11-16T11:44:25.715Z,62.98
2022-11-16T11:47:56.329Z,62.77
2022-11-16T11:50:55.306Z,62.62
2022-11-16T11:54:03.669Z,63.06
2022-11-16T11:57:08.217Z,62.43
2022-11-16T12:00:21.016Z,61.67
2022-11-16T12:03:25.254Z,62.80
2022-11-16T12:06:29.359Z,63.17
2022-11-16T12:09:33.130Z,62.64
2022-11-16T12:12:39.371Z,61.45
2022-11-16T12:15:44.884Z,62.93
2022-11-16T12:18:50.283Z,62.17
2022-11-16T12:21:54.191Z,63.23
2022-11-16T12:24:58.118Z,62.16
2022-11-16T12:28:02.320Z,63.51
2022-11-16T12:31:06.357Z,63.34
2022-11-16T12:34:10.572Z,63.20
2022-11-16T12:37:14.593Z,61.44
2022-11-16T12:40:18.817Z,60.69
2022-11-16T12:43:22.913Z,63.20
2022-11-16T12:46:26.843Z,59.05
2022-11-16T12:49:31.003Z,61.20
2022-11-16T12:52:36.409Z,59.80
2022-11-16T12:55:40.284Z,60.88
2022-11-16T12:58:44.059Z,59.47
2022-11-16T13:05:20.675Z,58.94
2022-11-16T13:08:24.611Z,61.75
2022-11-16T14:09:39.155Z,58.25
2022-11-16T14:16:12.052Z,57.08
2022-11-16T14:19:16.943Z,57.18
2022-11-16T14:22:21.133Z,56.32
2022-11-16T14:25:24.943Z,58.65
2022-11-16T14:28:29.178Z,56.74
2022-11-16T14:31:33.285Z,57.18
2022-11-16T14:34:37.293Z,58.08
2022-11-16T14:37:41.158Z,57.08
2022-11-16T14:40:45.065Z,60.00
2022-11-16T14:43:49.107Z,58.89
2022-11-16T14:46:52.934Z,59.30
2022-11-16T14:49:57.123Z,61.29
2022-11-16T14:53:03.082Z,60.56
2022-11-16T14:56:11.500Z,60.85
2022-11-16T14:59:18.700Z,58.93
2022-11-16T15:02:23.260Z,58.17
2022-11-16T15:05:29.861Z,58.90
2022-11-16T15:08:35.402Z,60.58
2022-11-16T15:11:40.747Z,61.07
2022-11-16T15:14:47.320Z,60.24
2022-11-16T15:17:52.619Z,63.50
2022-11-16T15:20:56.947Z,61.45
2022-11-16T15:24:29.987Z,60.63
2022-11-16T15:27:24.663Z,59.89
2022-11-16T15:30:32.418Z,61.71
2022-11-16T15:33:36.933Z,62.62
2022-11-16T15:36:41.703Z,60.82
2022-11-16T15:39:48.528Z,60.52
2022-11-16T15:42:52.402Z,61.48
2022-11-16T15:45:56.067Z,60.84
2022-11-16T15:49:00.192Z,60.94
2022-11-16T15:52:04.013Z,61.60
2022-11-16T15:55:07.729Z,61.63
2022-11-16T15:58:11.684Z,61.43
2022-11-16T16:01:15.893Z,61.44
2022-11-16T16:04:19.852Z,61.99
2022-11-16T16:07:25.847Z,61.27
2022-11-16T16:19:35.206Z,63.45
2022-11-16T16:22:38.850Z,62.63
2022-11-16T16:25:50.103Z,62.79
2022-11-16T16:28:54.931Z,62.88
2022-11-16T16:31:58.797Z,65.14
2022-11-16T16:35:03.314Z,62.86
2022-11-16T16:38:07.516Z,63.70
2022-11-16T16:41:12.616Z,63.59
2022-11-16T16:44:16.490Z,63.64
2022-11-16T16:47:20.823Z,64.25
2022-11-16T16:50:27.803Z,63.87
2022-11-16T16:53:33.425Z,63.60
2022-11-16T16:56:38.885Z,64.82
2022-11-16T16:59:44.789Z,64.96
2022-11-16T17:02:51.070Z,66.18
2022-11-16T17:05:54.957Z,66.43
2022-11-16T17:08:59.348Z,65.53
2022-11-16T17:12:04.494Z,66.80
2022-11-16T17:15:08.651Z,66.24
2022-11-16T17:18:12.688Z,66.03
2022-11-16T17:24:45.241Z,64.95
2022-11-16T17:27:49.927Z,65.82
2022-11-16T17:30:53.716Z,64.68
2022-11-16T17:33:58.114Z,64.95
2022-11-16T17:47:58.019Z,66.09
2022-11-16T17:51:16.401Z,65.67
2022-11-16T17:58:02.091Z,66.87
2022-11-16T18:01:10.955Z,66.87
2022-11-16T18:07:41.385Z,66.94
2022-11-16T18:10:52.858Z,67.23
2022-11-16T18:14:09.927Z,67.14
2022-11-16T18:17:23.104Z,67.54
2022-11-16T18:20:44.422Z,66.63
2022-11-16T18:27:16.490Z,68.61
2022-11-16T18:37:46.495Z,68.36
2022-11-16T18:40:58.545Z,67.54
2022-11-16T18:44:09.251Z,66.32
2022-11-16T18:54:18.458Z,68.48
2022-11-16T18:57:24.182Z,68.44
2022-11-16T19:00:27.935Z,68.34
2022-11-16T19:03:33.612Z,68.84
2022-11-16T19:17:07.416Z,69.71
2022-11-16T19:20:12.854Z,69.66
2022-11-16T19:23:27.348Z,68.59
2022-11-16T19:26:35.502Z,69.26
2022-11-16T19:29:40.099Z,67.96
2022-11-16T19:32:49.772Z,67.59
2022-11-16T19:36:22.078Z,66.30
2022-11-16T20:04:19.226Z,66.91
2022-11-16T20:07:23.047Z,66.49
2022-11-16T20:17:15.709Z,68.91
2022-11-16T20:20:38.197Z,69.34
2022-11-16T20:23:43.404Z,67.89
2022-11-16T20:26:52.029Z,67.57
2022-11-16T20:29:58.913Z,66.39
2022-11-16T20:33:03.139Z,66.37
2022-11-16T20:36:08.796Z,66.45
2022-11-16T20:39:14.348Z,67.52
2022-11-16T20:42:18.938Z,68.05
2022-11-16T20:45:23.002Z,67.71
2022-11-16T20:48:29.661Z,67.76
2022-11-16T20:51:36.996Z,67.16
2022-11-16T20:54:41.282Z,67.29
2022-11-16T20:57:45.623Z,68.29
2022-11-16T21:00:49.998Z,68.98
2022-11-16T21:03:54.223Z,69.10
2022-11-16T21:06:58.591Z,68.37
2022-11-16T21:10:02.468Z,67.43
2022-11-16T21:13:06.658Z,66.79
2022-11-16T21:16:10.368Z,66.04
2022-11-16T21:19:14.493Z,65.91
2022-11-16T21:22:19.678Z,64.78
2022-11-16T21:25:25.882Z,64.66
2022-11-16T21:28:31.787Z,65.54
2022-11-16T21:31:36.124Z,66.00
2022-11-16T21:34:42.931Z,64.97
2022-11-16T21:37:47.393Z,64.67
2022-11-16T21:40:52.623Z,64.68
2022-11-16T21:43:58.286Z,65.76
2022-11-16T21:47:05.700Z,65.49
2022-11-16T21:50:34.770Z,66.84
2022-11-16T21:53:39.270Z,64.46
2022-11-16T21:56:43.693Z,64.42
2022-11-16T21:59:51.722Z,62.75
2022-11-16T22:06:24.175Z,64.17
2022-11-16T22:09:28.493Z,63.93
2022-11-16T22:12:32.390Z,62.34
2022-11-16T22:15:36.696Z,62.53
2022-11-16T22:18:40.801Z,63.42
2022-11-16T22:21:44.692Z,64.43
2022-11-16T22:24:48.767Z,63.03
2022-11-16T22:28:19.059Z,63.62
2022-11-16T22:31:16.791Z,61.96
2022-11-16T22:34:20.878Z,63.27
2022-11-16T22:37:24.974Z,61.34
2022-11-16T22:40:28.711Z,61.74
2022-11-16T22:43:33.492Z,62.30
2022-11-16T22:46:37.789Z,62.25
2022-11-16T22:49:41.991Z,63.61
2022-11-16T22:52:46.018Z,62.75
2022-11-16T22:55:50.008Z,63.56
2022-11-16T22:58:54.334Z,62.52
2022-11-16T23:01:58.474Z,62.10
2022-11-16T23:05:02.460Z,64.67
2022-11-16T23:08:06.336Z,65.06
2022-11-16T23:11:10.270Z,66.41
2022-11-16T23:14:13.743Z,67.48
2022-11-16T23:17:17.954Z,69.04
2022-11-16T23:20:21.902Z,68.99
2022-11-16T23:23:27.245Z,68.10
2022-11-16T23:26:31.258Z,67.64
2022-11-16T23:29:35.620Z,64.98
2022-11-16T23:32:39.949Z,64.94
2022-11-16T23:35:43.649Z,65.48
2022-11-16T23:38:47.528Z,66.22
2022-11-16T23:41:51.210Z,66.58
2022-11-16T23:44:55.262Z,65.97
2022-11-16T23:47:59.307Z,66.54
2022-11-16T23:51:03.279Z,68.56
2022-11-16T23:54:08.319Z,67.83
2022-11-16T23:57:12.350Z,64.93
